Marshall, TX

10:16 AM CDT on July 20, 2017 (GMT -0500)
Harrison County

Weather History for KASL - November, 2013

Change the Weather History Date:

Thursday, November 14, 2013

  Actual Average (KGGG) Record (KGGG)
Temperature  
Mean Temperature 42 °F -  
Max Temperature 57 °F 64 °F 89 °F (1955)
Min Temperature 28 °F 45 °F 22 °F (1907)
Degree Days  
Heating Degree Days 22    
Moisture  
Dew Point 30 °F    
Average Humidity 67    
Maximum Humidity 92    
Minimum Humidity 27    
Precipitation  
Precipitation 0.00 in - - ()
Sea Level Pressure  
Sea Level Pressure 30.28 in    
Wind  
Wind Speed 2 mph (SSE)    
Max Wind Speed 9 mph    
Max Gust Speed -    
Visibility 10 miles    
Events      
Averages and records for this station are not official NWS values.
T = Trace of Precipitation, MM = Missing Value Source: NWS Daily Summary

Daily Weather History Graph

Daily Weather History Graph

Search for Another Location

Airport or City:

Trip Planner

Search our weather history database for the weather conditions in past years. The results will help you decide how hot, cold, wet, or windy it might be!

Date:

Astronomy

Nov. 14, 2013 Rise Set
Actual Time 6:46 AM CST 5:16 PM CST
Civil Twilight 6:20 AM CST 5:42 PM CST
Nautical Twilight 5:50 AM CST 6:12 PM CST
Astronomical Twilight 5:21 AM CST 6:41 PM CST
Moon 3:31 PM CST (11/14) 3:51 AM CST (11/14)
Length of Visible Light 11h 22m
Length of Day
10h 30m
Waxing Gibbous, 92% of the Moon is Illuminated
Nov 14
Waxing Gibbous
Nov 17
Full
Nov 25
Last Quarter
Dec 2
New
Dec 9
First Quarter

Hourly Weather History & Observations

Time (CST) Temp. Windchill Dew Point Humidity Pressure Visibility Wind Dir Wind Speed Gust Speed Precip Events Conditions
12:15 AM 30.9 °F - 28.8 °F 92% 30.44 in 10.0 mi Calm Calm - N/A   Clear
12:35 AM 30.9 °F - 28.9 °F 92% 30.44 in 10.0 mi Calm Calm - N/A   Clear
12:55 AM 30.9 °F - 28.9 °F 92% 30.43 in 10.0 mi Calm Calm - N/A   Clear
1:15 AM 30.9 °F - 28.8 °F 92% 30.42 in 10.0 mi Calm Calm - N/A   Clear
1:35 AM 30.9 °F - 28.9 °F 92% 30.42 in 10.0 mi Calm Calm - N/A   Clear
1:55 AM 29.3 °F - 27.3 °F 92% 30.41 in 10.0 mi Calm Calm - N/A   Clear
2:15 AM 28.4 °F - 26.4 °F 92% 30.40 in 10.0 mi Calm Calm - N/A   Clear
2:35 AM 28.4 °F - 26.4 °F 92% 30.40 in 10.0 mi Calm Calm - N/A   Clear
2:55 AM 30.2 °F - 28.0 °F 92% 30.40 in 10.0 mi Calm Calm - N/A   Clear
3:15 AM 30.6 °F - 28.2 °F 91% 30.40 in 10.0 mi Calm Calm - N/A   Clear
3:35 AM 30.9 °F - 28.4 °F 90% 30.39 in 10.0 mi Calm Calm - N/A   Clear
3:55 AM 30.9 °F - 28.4 °F 90% 30.39 in 10.0 mi Calm Calm - N/A   Clear
4:15 AM 30.9 °F - 28.4 °F 90% 30.39 in 10.0 mi Calm Calm - N/A   Clear
4:35 AM 30.9 °F - 28.4 °F 90% 30.39 in 10.0 mi Calm Calm - N/A   Clear
4:55 AM 30.9 °F - 28.4 °F 90% 30.39 in 10.0 mi Calm Calm - N/A   Clear
5:15 AM 30.9 °F - 28.4 °F 90% 30.38 in 10.0 mi Calm Calm - N/A   Clear
5:35 AM 30.6 °F - 27.0 °F 86% 30.38 in 10.0 mi Calm Calm - N/A   Clear
5:55 AM 28.4 °F - 25.7 °F 90% 30.38 in 10.0 mi Calm Calm - N/A   Clear
6:15 AM 28.4 °F - 25.9 °F 90% 30.37 in 10.0 mi Calm Calm - N/A   Clear
6:35 AM 28.4 °F - 26.1 °F 91% 30.37 in 10.0 mi Calm Calm - N/A   Clear
6:55 AM 28.4 °F - 25.9 °F 90% 30.37 in 10.0 mi Calm Calm - N/A   Clear
7:15 AM 28.4 °F - 26.1 °F 91% 30.38 in 10.0 mi Calm Calm - N/A   Clear
7:35 AM 30.9 °F - 28.4 °F 90% 30.38 in 10.0 mi Calm Calm - N/A   Clear
7:55 AM 32.4 °F - 28.8 °F 87% 30.39 in 10.0 mi Calm Calm - N/A   Clear
8:15 AM 33.1 °F - 28.4 °F 83% 30.38 in 10.0 mi Calm Calm - N/A   Clear
8:35 AM 36.1 °F 32.3 °F 29.3 °F 76% 30.38 in 10.0 mi SSE 4.6 mph - N/A   Clear
8:55 AM 39.0 °F 34.8 °F 28.8 °F 67% 30.38 in 10.0 mi SSE 5.8 mph - N/A   Clear
9:15 AM 43.0 °F 40.3 °F 30.0 °F 60% 30.38 in 10.0 mi SSE 4.6 mph - N/A   Clear
9:35 AM 45.7 °F 42.7 °F 30.2 °F 55% 30.37 in 10.0 mi South 5.8 mph - N/A   Clear
9:55 AM 46.9 °F - 27.1 °F 46% 30.36 in 10.0 mi SSE 8.1 mph - N/A   Clear
10:15 AM 50.5 °F - 27.9 °F 42% 30.36 in 10.0 mi South 8.1 mph - N/A   Clear
10:35 AM 50.5 °F - 26.2 °F 39% 30.35 in 10.0 mi South 5.8 mph - N/A   Clear
10:55 AM 50.7 °F - 23.9 °F 35% 30.34 in 10.0 mi SSW 8.1 mph - N/A   Clear
11:15 AM 52.5 °F - 25.0 °F 34% 30.33 in 10.0 mi South 8.1 mph - N/A   Clear
11:35 AM 53.1 °F - 25.5 °F 34% 30.31 in 10.0 mi South 5.8 mph - N/A   Clear
11:55 AM 53.1 °F - 24.6 °F 33% 30.29 in 10.0 mi SSE 8.1 mph - N/A   Clear
12:15 PM 54.7 °F - 24.6 °F 31% 30.27 in 10.0 mi SSE 6.9 mph - N/A   Clear
12:35 PM 55.6 °F - 24.6 °F 30% 30.26 in 10.0 mi South 5.8 mph - N/A   Clear
12:55 PM 55.6 °F - 24.6 °F 30% 30.24 in 10.0 mi SSE 6.9 mph - N/A   Clear
1:15 PM 55.9 °F - 25.2 °F 31% 30.22 in 10.0 mi South 9.2 mph - N/A   Clear
1:35 PM 55.9 °F - 24.1 °F 29% 30.21 in 10.0 mi SE 4.6 mph - N/A   Clear
1:55 PM 56.8 °F - 25.2 °F 30% 30.21 in 10.0 mi SE 6.9 mph - N/A   Clear
2:15 PM 57.7 °F - 25.5 °F 29% 30.20 in 10.0 mi SSE 9.2 mph - N/A   Clear
2:35 PM 57.9 °F - 25.5 °F 29% 30.20 in 10.0 mi SSE 6.9 mph - N/A   Clear
2:55 PM 57.0 °F - 22.8 °F 27% 30.19 in 10.0 mi SSE 5.8 mph - N/A   Clear
3:15 PM 57.0 °F - 24.3 °F 28% 30.18 in 10.0 mi SSE 6.9 mph - N/A   Clear
3:35 PM 56.8 °F - 24.3 °F 28% 30.18 in 10.0 mi SSE 5.8 mph - N/A   Clear
3:55 PM 55.6 °F - 24.8 °F 30% 30.17 in 10.0 mi SSE 4.6 mph - N/A   Clear
4:15 PM 55.6 °F - 26.4 °F 33% 30.18 in 10.0 mi Calm Calm - N/A   Clear
4:35 PM 55.6 °F - 27.5 °F 34% 30.17 in 10.0 mi SSE 3.5 mph - N/A   Clear
4:55 PM 53.1 °F - 30.2 °F 42% 30.16 in 10.0 mi Calm Calm - N/A   Clear
5:15 PM 50.5 °F - 36.9 °F 59% 30.15 in 10.0 mi Calm Calm - N/A   Clear
5:35 PM 48.2 °F - 37.8 °F 67% 30.14 in 10.0 mi Calm Calm - N/A   Clear
5:55 PM 45.9 °F - 37.6 °F 73% 30.15 in 10.0 mi Calm Calm - N/A   Clear
6:15 PM 45.7 °F - 38.1 °F 75% 30.15 in 10.0 mi Calm Calm - N/A   Clear
6:35 PM 45.7 °F - 38.8 °F 77% 30.14 in 10.0 mi Calm Calm - N/A   Clear
6:55 PM 43.2 °F - 37.2 °F 80% 30.15 in 10.0 mi Calm Calm - N/A   Clear
7:15 PM 42.3 °F - 36.5 °F 80% 30.17 in 10.0 mi Calm Calm - N/A   Clear
7:35 PM 41.4 °F - 36.5 °F 83% 30.17 in 10.0 mi Calm Calm - N/A   Clear
7:55 PM 40.6 °F - 36.1 °F 84% 30.16 in 10.0 mi Calm Calm - N/A   Clear
8:15 PM 41.9 °F - 35.8 °F 79% 30.16 in 10.0 mi Calm Calm - N/A   Clear
8:35 PM 41.5 °F - 36.7 °F 83% 30.16 in 10.0 mi Calm Calm - N/A   Clear
8:55 PM 41.9 °F - 37.9 °F 86% 30.15 in 10.0 mi Calm Calm - N/A   Clear
9:15 PM 45.7 °F - 37.2 °F 72% 30.14 in 10.0 mi Calm Calm - N/A   Clear
9:35 PM 45.7 °F - 37.0 °F 72% 30.15 in 10.0 mi Calm Calm - N/A   Clear
9:55 PM 45.9 °F 44.6 °F 34.9 °F 66% 30.15 in 10.0 mi SSE 3.5 mph - N/A   Mostly Cloudy
10:15 PM 45.7 °F - 36.3 °F 70% 30.15 in 10.0 mi Calm Calm - N/A   Overcast
10:35 PM 47.5 °F - 36.5 °F 66% 30.14 in 10.0 mi Calm Calm - N/A   Overcast
10:55 PM 47.3 °F - 36.7 °F 67% 30.14 in 10.0 mi Calm Calm - N/A   Overcast
11:15 PM 45.7 °F - 41.0 °F 84% 30.14 in 10.0 mi Calm Calm - N/A   Overcast
11:35 PM 45.7 °F - 39.0 °F 78% 30.12 in 10.0 mi Calm Calm - N/A   Overcast
11:55 PM 45.7 °F - 37.9 °F 74% 30.12 in 10.0 mi Calm Calm - N/A   Overcast